sensor_id;sensor_type;location;lat;lon;timestamp;pressure;altitude;pressure_sealevel;temperature;humidity
36354;BME280;22383;51.114;13.666;2022-10-30T00:00:27;68487.72;;;11.77;100.00
36354;BME280;22383;51.114;13.666;2022-10-30T00:02:58;68483.72;;;11.73;100.00
36354;BME280;22383;51.114;13.666;2022-10-30T00:05:26;68483.53;;;11.71;100.00
36354;BME280;22383;51.114;13.666;2022-10-30T00:07:54;68483.72;;;11.73;100.00
36354;BME280;22383;51.114;13.666;2022-10-30T00:10:23;68475.78;;;11.66;100.00
36354;BME280;22383;51.114;13.666;2022-10-30T00:12:50;68471.44;;;11.65;100.00
36354;BME280;22383;51.114;13.666;2022-10-30T00:15:19;68475.22;;;11.66;100.00
36354;BME280;22383;51.114;13.666;2022-10-30T00:17:46;68479.38;;;11.72;100.00
36354;BME280;22383;51.114;13.666;2022-10-30T00:20:13;68483.91;;;11.76;100.00
36354;BME280;22383;51.114;13.666;2022-10-30T00:22:40;68455.91;;;11.70;100.00
36354;BME280;22383;51.114;13.666;2022-10-30T00:25:08;68474.84;;;11.68;100.00
36354;BME280;22383;51.114;13.666;2022-10-30T00:27:35;68477.50;;;11.68;100.00
36354;BME280;22383;51.114;13.666;2022-10-30T00:30:03;68486.38;;;11.73;100.00
36354;BME280;22383;51.114;13.666;2022-10-30T00:32:30;68484.28;;;11.74;100.00
36354;BME280;22383;51.114;13.666;2022-10-30T00:34:58;68490.72;;;11.82;100.00
36354;BME280;22383;51.114;13.666;2022-10-30T00:37:25;68472.34;;;11.85;100.00
36354;BME280;22383;51.114;13.666;2022-10-30T00:39:52;68497.53;;;11.88;100.00
36354;BME280;22383;51.114;13.666;2022-10-30T00:42:20;68501.88;;;11.90;100.00
36354;BME280;22383;51.114;13.666;2022-10-30T00:44:49;68506.25;;;11.91;100.00
36354;BME280;22383;51.114;13.666;2022-10-30T00:47:25;68503.97;;;11.89;100.00
36354;BME280;22383;51.114;13.666;2022-10-30T00:52:27;68493.94;;;11.83;100.00
36354;BME280;22383;51.114;13.666;2022-10-30T00:55:01;68488.25;;;11.78;100.00
36354;BME280;22383;51.114;13.666;2022-10-30T00:57:30;68479.38;;;11.72;100.00
36354;BME280;22383;51.114;13.666;2022-10-30T00:59:58;68459.31;;;11.73;100.00
36354;BME280;22383;51.114;13.666;2022-10-30T01:02:25;68476.56;;;11.69;100.00
36354;BME280;22383;51.114;13.666;2022-10-30T01:04:53;68481.09;;;11.66;100.00
36354;BME280;22383;51.114;13.666;2022-10-30T01:07:20;68470.13;;;11.61;100.00
36354;BME280;22383;51.114;13.666;2022-10-30T01:09:49;68467.47;;;11.61;100.00
36354;BME280;22383;51.114;13.666;2022-10-30T01:12:17;68463.88;;;11.56;100.00
36354;BME280;22383;51.114;13.666;2022-10-30T01:14:50;68462.75;;;11.54;100.00
36354;BME280;22383;51.114;13.666;2022-10-30T01:17:38;68464.06;;;11.58;100.00
36354;BME280;22383;51.114;13.666;2022-10-30T01:25:47;68476.91;;;11.67;100.00
36354;BME280;22383;51.114;13.666;2022-10-30T01:31:15;68470.28;;;11.64;100.00
36354;BME280;22383;51.114;13.666;2022-10-30T01:33:58;68473.53;;;11.64;100.00
36354;BME280;22383;51.114;13.666;2022-10-30T01:36:35;68468.03;;;11.62;100.00
36354;BME280;22383;51.114;13.666;2022-10-30T01:39:13;68473.53;;;11.64;100.00
36354;BME280;22383;51.114;13.666;2022-10-30T01:41:42;68476.75;;;11.65;100.00
36354;BME280;22383;51.114;13.666;2022-10-30T01:44:15;68482.22;;;11.67;100.00
36354;BME280;22383;51.114;13.666;2022-10-30T01:47:25;68475.22;;;11.66;100.00
36354;BME280;22383;51.114;13.666;2022-10-30T01:53:01;68469.16;;;11.63;100.00
36354;BME280;22383;51.114;13.666;2022-10-30T01:58:43;68457.06;;;11.49;100.00
36354;BME280;22383;51.114;13.666;2022-10-30T02:01:13;68452.53;;;11.45;100.00
36354;BME280;22383;51.114;13.666;2022-10-30T02:03:42;68449.69;;;11.43;100.00
36354;BME280;22383;51.114;13.666;2022-10-30T02:06:10;68444.59;;;11.38;100.00
36354;BME280;22383;51.114;13.666;2022-10-30T02:08:37;68448.94;;;11.40;100.00
36354;BME280;22383;51.114;13.666;2022-10-30T02:11:05;68444.00;;;11.38;100.00
36354;BME280;22383;51.114;13.666;2022-10-30T02:13:37;68444.97;;;11.36;100.00
36354;BME280;22383;51.114;13.666;2022-10-30T02:16:05;68442.31;;;11.36;100.00
36354;BME280;22383;51.114;13.666;2022-10-30T02:18:32;68444.41;;;11.35;100.00
36354;BME280;22383;51.114;13.666;2022-10-30T02:21:01;68443.66;;;11.40;100.00
36354;BME280;22383;51.114;13.666;2022-10-30T02:23:28;68443.44;;;11.37;100.00
36354;BME280;22383;51.114;13.666;2022-10-30T02:25:56;68437.38;;;11.34;100.00
36354;BME280;22383;51.114;13.666;2022-10-30T02:28:25;68442.13;;;11.33;100.00
36354;BME280;22383;51.114;13.666;2022-10-30T02:30:54;68433.03;;;11.32;100.00
36354;BME280;22383;51.114;13.666;2022-10-30T02:33:23;68438.53;;;11.35;100.00
36354;BME280;22383;51.114;13.666;2022-10-30T02:35:51;68435.69;;;11.32;100.00
36354;BME280;22383;51.114;13.666;2022-10-30T02:38:18;68446.09;;;11.37;100.00
36354;BME280;22383;51.114;13.666;2022-10-30T02:40:48;68443.44;;;11.37;100.00
36354;BME280;22383;51.114;13.666;2022-10-30T02:43:15;68445.72;;;11.39;100.00
36354;BME280;22383;51.114;13.666;2022-10-30T02:45:43;68451.59;;;11.40;100.00
36354;BME280;22383;51.114;13.666;2022-10-30T02:48:11;68449.13;;;11.42;100.00
36354;BME280;22383;51.114;13.666;2022-10-30T02:50:38;68446.28;;;11.40;100.00
36354;BME280;22383;51.114;13.666;2022-10-30T02:53:05;68446.28;;;11.40;100.00
36354;BME280;22383;51.114;13.666;2022-10-30T02:55:33;68445.72;;;11.39;100.00
36354;BME280;22383;51.114;13.666;2022-10-30T02:58:00;68443.66;;;11.40;100.00
36354;BME280;22383;51.114;13.666;2022-10-30T03:00:29;68445.53;;;11.37;100.00
36354;BME280;22383;51.114;13.666;2022-10-30T03:02:57;68442.88;;;11.37;100.00
36354;BME280;22383;51.114;13.666;2022-10-30T03:05:25;68437.38;;;11.34;100.00
36354;BME280;22383;51.114;13.666;2022-10-30T03:07:53;68438.91;;;11.33;100.00
36354;BME280;22383;51.114;13.666;2022-10-30T03:10:21;68438.34;;;11.32;100.00
36354;BME280;22383;51.114;13.666;2022-10-30T03:12:49;68435.13;;;11.32;100.00
36354;BME280;22383;51.114;13.666;2022-10-30T03:15:16;68437.78;;;11.32;100.00
36354;BME280;22383;51.114;13.666;2022-10-30T03:17:43;68436.28;;;11.33;100.00
36354;BME280;22383;51.114;13.666;2022-10-30T03:20:11;68439.88;;;11.31;100.00
36354;BME280;22383;51.114;13.666;2022-10-30T03:22:38;68434.56;;;11.31;100.00
36354;BME280;22383;51.114;13.666;2022-10-30T03:25:06;68436.66;;;11.31;100.00
36354;BME280;22383;51.114;13.666;2022-10-30T03:27:33;68434.38;;;11.29;100.00
36354;BME280;22383;51.114;13.666;2022-10-30T03:30:02;68434.38;;;11.29;100.00
36354;BME280;22383;51.114;13.666;2022-10-30T03:32:29;68435.50;;;11.30;100.00
36354;BME280;22383;51.114;13.666;2022-10-30T03:34:59;68446.09;;;11.37;100.00
36354;BME280;22383;51.114;13.666;2022-10-30T03:37:26;68444.97;;;11.36;100.00
36354;BME280;22383;51.114;13.666;2022-10-30T03:39:54;68444.59;;;11.38;100.00
36354;BME280;22383;51.114;13.666;2022-10-30T03:42:22;68442.50;;;11.39;100.00
36354;BME280;22383;51.114;13.666;2022-10-30T03:44:50;68447.25;;;11.38;100.00
36354;BME280;22383;51.114;13.666;2022-10-30T03:47:18;68446.84;;;11.40;100.00
36354;BME280;22383;51.114;13.666;2022-10-30T03:49:45;68455.19;;;11.45;100.00
36354;BME280;22383;51.114;13.666;2022-10-30T03:52:17;68457.44;;;11.47;100.00
36354;BME280;22383;51.114;13.666;2022-10-30T03:54:47;68455.75;;;11.46;100.00
36354;BME280;22383;51.114;13.666;2022-10-30T03:57:17;68453.66;;;11.46;100.00
36354;BME280;22383;51.114;13.666;2022-10-30T04:00:19;68446.84;;;11.40;100.00
36354;BME280;22383;51.114;13.666;2022-10-30T04:02:56;68444.00;;;11.38;100.00
36354;BME280;22383;51.114;13.666;2022-10-30T04:05:26;68440.03;;;11.34;100.00
36354;BME280;22383;51.114;13.666;2022-10-30T04:07:58;68415.63;;;11.33;100.00
36354;BME280;22383;51.114;13.666;2022-10-30T04:10:27;68441.75;;;11.35;100.00
36354;BME280;22383;51.114;13.666;2022-10-30T04:12:59;68444.41;;;11.35;100.00
36354;BME280;22383;51.114;13.666;2022-10-30T04:15:27;68442.31;;;11.36;100.00
36354;BME280;22383;51.114;13.666;2022-10-30T04:17:55;68438.91;;;11.33;100.00
36354;BME280;22383;51.114;13.666;2022-10-30T04:20:24;68438.91;;;11.33;100.00
36354;BME280;22383;51.114;13.666;2022-10-30T04:22:56;68436.66;;;11.31;100.00
36354;BME280;22383;51.114;13.666;2022-10-30T04:25:24;68426.63;;;11.24;100.00
36354;BME280;22383;51.114;13.666;2022-10-30T04:27:52;68425.31;;;11.21;100.00
36354;BME280;22383;51.114;13.666;2022-10-30T04:30:19;68420.97;;;11.19;100.00
36354;BME280;22383;51.114;13.666;2022-10-30T04:32:47;68415.84;;;11.14;100.00
36354;BME280;22383;51.114;13.666;2022-10-30T04:35:19;68417.53;;;11.16;100.00
36354;BME280;22383;51.114;13.666;2022-10-30T04:37:58;68423.59;;;11.19;100.00
36354;BME280;22383;51.114;13.666;2022-10-30T04:40:29;68423.78;;;11.22;100.00
36354;BME280;22383;51.114;13.666;2022-10-30T04:43:01;68425.88;;;11.21;100.00
36354;BME280;22383;51.114;13.666;2022-10-30T04:45:33;68428.13;;;11.23;100.00
36354;BME280;22383;51.114;13.666;2022-10-30T04:48:10;68432.31;;;11.29;100.00
36354;BME280;22383;51.114;13.666;2022-10-30T04:50:37;68433.81;;;11.28;100.00
36354;BME280;22383;51.114;13.666;2022-10-30T04:53:08;68437.78;;;11.32;100.00
36354;BME280;22383;51.114;13.666;2022-10-30T04:55:36;68439.69;;;11.36;100.00
36354;BME280;22383;51.114;13.666;2022-10-30T04:58:04;68452.16;;;11.40;100.00
36354;BME280;22383;51.114;13.666;2022-10-30T05:00:36;68445.91;;;11.42;100.00
36354;BME280;22383;51.114;13.666;2022-10-30T05:03:23;68449.69;;;11.43;100.00
36354;BME280;22383;51.114;13.666;2022-10-30T05:05:58;68445.34;;;11.41;100.00
36354;BME280;22383;51.114;13.666;2022-10-30T05:08:27;68442.50;;;11.39;100.00
36354;BME280;22383;51.114;13.666;2022-10-30T05:10:56;68442.50;;;11.39;100.00
36354;BME280;22383;51.114;13.666;2022-10-30T05:13:23;68441.75;;;11.35;100.00
36354;BME280;22383;51.114;13.666;2022-10-30T05:15:52;68444.00;;;11.38;100.00
36354;BME280;22383;51.114;13.666;2022-10-30T05:18:21;68445.53;;;11.37;100.00
36354;BME280;22383;51.114;13.666;2022-10-30T05:20:49;68444.22;;;11.33;100.00
36354;BME280;22383;51.114;13.666;2022-10-30T05:23:16;68441.56;;;11.33;100.00
36354;BME280;22383;51.114;13.666;2022-10-30T05:25:43;68430.78;;;11.30;100.00
36354;BME280;22383;51.114;13.666;2022-10-30T05:28:13;68433.81;;;11.28;100.00
36354;BME280;22383;51.114;13.666;2022-10-30T05:30:45;68433.25;;;11.28;100.00
36354;BME280;22383;51.114;13.666;2022-10-30T05:33:30;68432.09;;;11.27;100.00
36354;BME280;22383;51.114;13.666;2022-10-30T05:35:58;68432.88;;;11.30;100.00
36354;BME280;22383;51.114;13.666;2022-10-30T05:38:26;68433.81;;;11.28;100.00
36354;BME280;22383;51.114;13.666;2022-10-30T05:40:54;68434.19;;;11.26;100.00
36354;BME280;22383;51.114;13.666;2022-10-30T05:43:22;68406.00;;;11.25;100.00
36354;BME280;22383;51.114;13.666;2022-10-30T05:45:49;68428.72;;;11.24;100.00
36354;BME280;22383;51.114;13.666;2022-10-30T05:48:17;68425.88;;;11.21;100.00
36354;BME280;22383;51.114;13.666;2022-10-30T05:50:45;68424.91;;;11.23;100.00
36354;BME280;22383;51.114;13.666;2022-10-30T05:53:26;68428.72;;;11.24;100.00
36354;BME280;22383;51.114;13.666;2022-10-30T05:55:56;68430.41;;;11.25;100.00
36354;BME280;22383;51.114;13.666;2022-10-30T05:58:29;68433.25;;;11.28;100.00
36354;BME280;22383;51.114;13.666;2022-10-30T06:00:58;68434.00;;;11.31;100.00
36354;BME280;22383;51.114;13.666;2022-10-30T06:03:38;68438.91;;;11.33;100.00
36354;BME280;22383;51.114;13.666;2022-10-30T06:06:05;68440.44;;;11.32;100.00
36354;BME280;22383;51.114;13.666;2022-10-30T06:08:32;68431.34;;;11.31;100.00
36354;BME280;22383;51.114;13.666;2022-10-30T06:11:08;68433.44;;;11.30;100.00
36354;BME280;22383;51.114;13.666;2022-10-30T06:13:39;68442.31;;;11.36;100.00
36354;BME280;22383;51.114;13.666;2022-10-30T06:16:10;68431.16;;;11.28;100.00
36354;BME280;22383;51.114;13.666;2022-10-30T06:18:58;68432.09;;;11.27;100.00
36354;BME280;22383;51.114;13.666;2022-10-30T06:21:27;68430.59;;;11.28;100.00
36354;BME280;22383;51.114;13.666;2022-10-30T06:24:12;68443.06;;;11.32;100.00
36354;BME280;22383;51.114;13.666;2022-10-30T06:26:59;68442.13;;;11.33;100.00
36354;BME280;22383;51.114;13.666;2022-10-30T06:29:27;68441.94;;;11.38;100.00
36354;BME280;22383;51.114;13.666;2022-10-30T06:31:54;68442.69;;;11.41;100.00
36354;BME280;22383;51.114;13.666;2022-10-30T06:34:25;68453.66;;;11.46;100.00
36354;BME280;22383;51.114;13.666;2022-10-30T06:36:53;68456.50;;;11.49;100.00
36354;BME280;22383;51.114;13.666;2022-10-30T06:39:24;68460.47;;;11.52;100.00
36354;BME280;22383;51.114;13.666;2022-10-30T06:42:11;68459.91;;;11.52;100.00
36354;BME280;22383;51.114;13.666;2022-10-30T06:44:58;68462.75;;;11.54;100.00
36354;BME280;22383;51.114;13.666;2022-10-30T06:47:25;68464.44;;;11.56;100.00
36354;BME280;22383;51.114;13.666;2022-10-30T06:49:52;68468.41;;;11.60;100.00
36354;BME280;22383;51.114;13.666;2022-10-30T06:52:20;68473.88;;;11.62;100.00
36354;BME280;22383;51.114;13.666;2022-10-30T06:54:50;68469.72;;;11.63;100.00
36354;BME280;22383;51.114;13.666;2022-10-30T06:57:41;68466.53;;;11.63;100.00
36354;BME280;22383;51.114;13.666;2022-10-30T07:00:48;68470.69;;;11.62;100.00
36354;BME280;22383;51.114;13.666;2022-10-30T07:07:59;68464.81;;;11.61;100.00
36354;BME280;22383;51.114;13.666;2022-10-30T07:10:26;68468.22;;;11.64;100.00
36354;BME280;22383;51.114;13.666;2022-10-30T07:13:22;68473.53;;;11.64;100.00
36354;BME280;22383;51.114;13.666;2022-10-30T07:16:19;68493.94;;;11.83;100.00
36354;BME280;22383;51.114;13.666;2022-10-30T07:18:48;68481.47;;;11.71;100.00
36354;BME280;22383;51.114;13.666;2022-10-30T07:21:17;68478.63;;;11.69;100.00
36354;BME280;22383;51.114;13.666;2022-10-30T07:23:44;68486.19;;;11.78;100.00
36354;BME280;22383;51.114;13.666;2022-10-30T07:26:26;68480.53;;;11.73;100.00
36354;BME280;22383;51.114;13.666;2022-10-30T07:28:57;68488.84;;;11.78;100.00
36354;BME280;22383;51.114;13.666;2022-10-30T07:31:46;68508.16;;;11.96;100.00
36354;BME280;22383;51.114;13.666;2022-10-30T07:34:33;68505.88;;;11.94;100.00
36354;BME280;22383;51.114;13.666;2022-10-30T07:37:21;68507.78;;;11.98;100.00
36354;BME280;22383;51.114;13.666;2022-10-30T07:39:57;68514.22;;;11.99;100.00
36354;BME280;22383;51.114;13.666;2022-10-30T07:42:45;68510.03;;;12.00;100.00
36354;BME280;22383;51.114;13.666;2022-10-30T07:45:36;68515.34;;;12.00;100.00
36354;BME280;22383;51.114;13.666;2022-10-30T07:48:22;68518.00;;;12.07;100.00
36354;BME280;22383;51.114;13.666;2022-10-30T07:50:59;68519.13;;;12.08;100.00
36354;BME280;22383;51.114;13.666;2022-10-30T07:53:27;68515.34;;;12.00;100.00
36354;BME280;22383;51.114;13.666;2022-10-30T07:55:56;68514.41;;;12.01;100.00
36354;BME280;22383;51.114;13.666;2022-10-30T07:58:47;68512.88;;;12.02;100.00
36354;BME280;22383;51.114;13.666;2022-10-30T08:01:36;68518.94;;;12.05;100.00
36354;BME280;22383;51.114;13.666;2022-10-30T08:04:30;68528.59;;;12.14;100.00
36354;BME280;22383;51.114;13.666;2022-10-30T08:07:06;68517.78;;;12.26;100.00
36354;BME280;22383;51.114;13.666;2022-10-30T08:09:34;68575.13;;;12.56;100.00
36354;BME280;22383;51.114;13.666;2022-10-30T08:12:02;68578.56;;;12.59;100.00
36354;BME280;22383;51.114;13.666;2022-10-30T08:14:30;68608.28;;;12.89;100.00
36354;BME280;22383;51.114;13.666;2022-10-30T08:16:58;68598.94;;;12.99;100.00
36354;BME280;22383;51.114;13.666;2022-10-30T08:19:26;68643.66;;;13.23;100.00
36354;BME280;22383;51.114;13.666;2022-10-30T08:21:53;68598.94;;;12.99;100.00
36354;BME280;22383;51.114;13.666;2022-10-30T08:24:26;68630.78;;;13.07;100.00
36354;BME280;22383;51.114;13.666;2022-10-30T08:26:57;68652.00;;;13.28;100.00
36354;BME280;22383;51.114;13.666;2022-10-30T08:29:26;68681.00;;;13.54;100.00
36354;BME280;22383;51.114;13.666;2022-10-30T08:31:54;68713.38;;;13.84;100.00
36354;BME280;22383;51.114;13.666;2022-10-30T08:34:22;68698.22;;;13.65;100.00
36354;BME280;22383;51.114;13.666;2022-10-30T08:36:53;68705.81;;;13.74;100.00
36354;BME280;22383;51.114;13.666;2022-10-30T08:39:21;68680.19;;;13.73;100.00
36354;BME280;22383;51.114;13.666;2022-10-30T08:42:17;68725.13;;;13.92;100.00
36354;BME280;22383;51.114;13.666;2022-10-30T08:44:45;68730.75;;;14.18;100.00
36354;BME280;22383;51.114;13.666;2022-10-30T08:47:15;68768.34;;;14.31;100.00
36354;BME280;22383;51.114;13.666;2022-10-30T08:49:44;68770.22;;;14.35;100.00
36354;BME280;22383;51.114;13.666;2022-10-30T08:52:13;68788.25;;;14.49;100.00
36354;BME280;22383;51.114;13.666;2022-10-30T08:54:40;68862.75;;;15.16;100.00
36354;BME280;22383;51.114;13.666;2022-10-30T08:57:08;68879.81;;;15.31;100.00
36354;BME280;22383;51.114;13.666;2022-10-30T08:59:35;68915.59;;;15.85;100.00
36354;BME280;22383;51.114;13.666;2022-10-30T09:02:03;68951.16;;;15.98;100.00
36354;BME280;22383;51.114;13.666;2022-10-30T09:04:49;68948.72;;;15.94;100.00
36354;BME280;22383;51.114;13.666;2022-10-30T09:07:20;68961.78;;;16.05;100.00
36354;BME280;22383;51.114;13.666;2022-10-30T09:09:59;68940.53;;;15.91;100.00
36354;BME280;22383;51.114;13.666;2022-10-30T09:12:52;68936.19;;;15.82;100.00
36354;BME280;22383;51.114;13.666;2022-10-30T09:15:23;68929.16;;;15.74;100.00
36354;BME280;22383;51.114;13.666;2022-10-30T09:18:02;68922.50;;;15.70;100.00
36354;BME280;22383;51.114;13.666;2022-10-30T09:20:30;68971.47;;;16.14;100.00
36354;BME280;22383;51.114;13.666;2022-10-30T09:22:58;69000.13;;;16.42;100.00
36354;BME280;22383;51.114;13.666;2022-10-30T09:25:25;69010.09;;;16.71;100.00
36354;BME280;22383;51.114;13.666;2022-10-30T09:28:10;69013.06;;;16.52;100.00
36354;BME280;22383;51.114;13.666;2022-10-30T09:31:00;68994.41;;;16.37;100.00
36354;BME280;22383;51.114;13.666;2022-10-30T09:33:30;68960.84;;;16.07;100.00
36354;BME280;22383;51.114;13.666;2022-10-30T09:36:23;68971.38;;;16.36;100.00
36354;BME280;22383;51.114;13.666;2022-10-30T09:38:51;69018.34;;;16.59;100.00
36354;BME280;22383;51.114;13.666;2022-10-30T09:41:31;69034.28;;;16.73;100.00
36354;BME280;22383;51.114;13.666;2022-10-30T09:49:56;68999.81;;;16.61;100.00
36354;BME280;22383;51.114;13.666;2022-10-30T10:01:16;69044.25;;;17.01;100.00
36354;BME280;22383;51.114;13.666;2022-10-30T10:06:51;69119.59;;;17.48;100.00
36354;BME280;22383;51.114;13.666;2022-10-30T10:09:33;69140.28;;;17.69;100.00
36354;BME280;22383;51.114;13.666;2022-10-30T10:12:33;69090.31;;;17.26;100.00
36354;BME280;22383;51.114;13.666;2022-10-30T10:15:06;69079.31;;;17.14;100.00
36354;BME280;22383;51.114;13.666;2022-10-30T10:17:40;69029.44;;;16.88;100.00
36354;BME280;22383;51.114;13.666;2022-10-30T10:20:15;69038.69;;;16.75;100.00
36354;BME280;22383;51.114;13.666;2022-10-30T10:22:48;68993.00;;;16.55;100.00
36354;BME280;22383;51.114;13.666;2022-10-30T10:25:18;69038.13;;;16.74;100.00
36354;BME280;22383;51.114;13.666;2022-10-30T10:30:23;69025.56;;;16.63;100.00
36354;BME280;22383;51.114;13.666;2022-10-30T10:36:02;69077.44;;;17.10;100.00
36354;BME280;22383;51.114;13.666;2022-10-30T10:52:52;69182.72;;;18.26;100.00
36354;BME280;22383;51.114;13.666;2022-10-30T10:55:30;69235.50;;;18.55;100.00
36354;BME280;22383;51.114;13.666;2022-10-30T10:58:05;69234.94;;;18.54;100.00
36354;BME280;22383;51.114;13.666;2022-10-30T11:00:33;69222.06;;;18.62;100.00
36354;BME280;22383;51.114;13.666;2022-10-30T11:03:22;69257.75;;;18.75;100.00
36354;BME280;22383;51.114;13.666;2022-10-30T11:05:56;69281.16;;;18.96;100.00
36354;BME280;22383;51.114;13.666;2022-10-30T11:08:30;69260.84;;;18.97;100.00
36354;BME280;22383;51.114;13.666;2022-10-30T11:11:00;69269.41;;;19.04;100.00
36354;BME280;22383;51.114;13.666;2022-10-30T11:13:35;69262.56;;;18.98;100.00
36354;BME280;22383;51.114;13.666;2022-10-30T11:18:46;69206.66;;;18.48;100.00
36354;BME280;22383;51.114;13.666;2022-10-30T11:21:17;69191.84;;;18.35;100.00
36354;BME280;22383;51.114;13.666;2022-10-30T11:23:47;69211.56;;;18.33;100.00
36354;BME280;22383;51.114;13.666;2022-10-30T11:31:57;69257.00;;;18.71;100.00
36354;BME280;22383;51.114;13.666;2022-10-30T11:34:34;69247.50;;;18.65;100.00
36354;BME280;22383;51.114;13.666;2022-10-30T11:37:03;69261.75;;;18.78;100.00
36354;BME280;22383;51.114;13.666;2022-10-30T11:39:33;69261.44;;;18.97;100.00
36354;BME280;22383;51.114;13.666;2022-10-30T11:47:06;69325.47;;;19.33;100.00
36354;BME280;22383;51.114;13.666;2022-10-30T11:52:17;69342.19;;;19.51;100.00
36354;BME280;22383;51.114;13.666;2022-10-30T11:54:48;69326.44;;;19.56;100.00
36354;BME280;22383;51.114;13.666;2022-10-30T11:57:22;69333.09;;;19.42;100.00
36354;BME280;22383;51.114;13.666;2022-10-30T11:59:53;69330.22;;;19.40;100.00
36354;BME280;22383;51.114;13.666;2022-10-30T12:02:28;69321.28;;;19.51;100.00
36354;BME280;22383;51.114;13.666;2022-10-30T12:05:00;69332.34;;;19.39;100.00
36354;BME280;22383;51.114;13.666;2022-10-30T12:07:31;69320.34;;;19.29;100.00
36354;BME280;22383;51.114;13.666;2022-10-30T12:10:02;69300.78;;;19.33;100.00
36354;BME280;22383;51.114;13.666;2022-10-30T12:12:41;69329.88;;;19.35;100.00
36354;BME280;22383;51.114;13.666;2022-10-30T12:15:17;69334.78;;;19.44;100.00
36354;BME280;22383;51.114;13.666;2022-10-30T12:18:01;69315.03;;;19.45;100.00
36354;BME280;22383;51.114;13.666;2022-10-30T12:20:36;69320.13;;;19.33;100.00
36354;BME280;22383;51.114;13.666;2022-10-30T12:23:34;69305.91;;;19.37;100.00
36354;BME280;22383;51.114;13.666;2022-10-30T12:26:09;69316.75;;;19.47;100.00
36354;BME280;22383;51.114;13.666;2022-10-30T12:28:37;69299.06;;;19.31;100.00
36354;BME280;22383;51.114;13.666;2022-10-30T12:31:13;69309.50;;;19.19;100.00
36354;BME280;22383;51.114;13.666;2022-10-30T12:36:23;69265.00;;;18.79;100.00
36354;BME280;22383;51.114;13.666;2022-10-30T12:39:01;69270.31;;;18.86;100.00
36354;BME280;22383;51.114;13.666;2022-10-30T12:41:55;69213.09;;;18.32;100.00
36354;BME280;22383;51.114;13.666;2022-10-30T12:44:41;69197.13;;;18.18;100.00
36354;BME280;22383;51.114;13.666;2022-10-30T12:50:26;69159.09;;;17.86;100.00
36354;BME280;22383;51.114;13.666;2022-10-30T12:53:05;69156.66;;;17.81;100.00
36354;BME280;22383;51.114;13.666;2022-10-30T12:55:41;69130.22;;;17.62;100.00
36354;BME280;22383;51.114;13.666;2022-10-30T12:58:35;69110.88;;;17.62;100.00
36354;BME280;22383;51.114;13.666;2022-10-30T13:01:15;69143.13;;;17.71;100.00
36354;BME280;22383;51.114;13.666;2022-10-30T13:03:56;69178.31;;;18.01;100.00
36354;BME280;22383;51.114;13.666;2022-10-30T13:06:27;69214.41;;;18.36;100.00
36354;BME280;22383;51.114;13.666;2022-10-30T13:12:17;69267.69;;;19.03;100.00
36354;BME280;22383;51.114;13.666;2022-10-30T13:14:54;69308.53;;;19.20;100.00
36354;BME280;22383;51.114;13.666;2022-10-30T13:17:24;69291.63;;;19.24;100.00
36354;BME280;22383;51.114;13.666;2022-10-30T13:19:54;69332.50;;;19.42;100.00
36354;BME280;22383;51.114;13.666;2022-10-30T13:22:34;69330.78;;;19.40;100.00
36354;BME280;22383;51.114;13.666;2022-10-30T13:25:20;69325.06;;;19.35;100.00
36354;BME280;22383;51.114;13.666;2022-10-30T13:30:36;69326.06;;;19.34;100.00
36354;BME280;22383;51.114;13.666;2022-10-30T13:38:45;69292.22;;;19.25;100.00
36354;BME280;22383;51.114;13.666;2022-10-30T13:42:41;69314.06;;;19.23;100.00
36354;BME280;22383;51.114;13.666;2022-10-30T13:50:31;69316.13;;;19.30;100.00
36354;BME280;22383;51.114;13.666;2022-10-30T13:53:11;69324.50;;;19.35;100.00
36354;BME280;22383;51.114;13.666;2022-10-30T13:55:40;69326.78;;;19.37;100.00
36354;BME280;22383;51.114;13.666;2022-10-30T14:04:06;69295.81;;;19.06;100.00
36354;BME280;22383;51.114;13.666;2022-10-30T14:20:50;69276.59;;;18.92;100.00
36354;BME280;22383;51.114;13.666;2022-10-30T14:23:35;69277.91;;;18.95;100.00
36354;BME280;22383;51.114;13.666;2022-10-30T14:28:39;69270.91;;;18.86;100.00
36354;BME280;22383;51.114;13.666;2022-10-30T14:31:11;69257.75;;;18.75;100.00
36354;BME280;22383;51.114;13.666;2022-10-30T14:33:47;69249.59;;;18.65;100.00
36354;BME280;22383;51.114;13.666;2022-10-30T14:39:40;69232.47;;;18.49;100.00
36354;BME280;22383;51.114;13.666;2022-10-30T14:45:00;69209.50;;;18.26;100.00
36354;BME280;22383;51.114;13.666;2022-10-30T14:59:09;69130.03;;;17.60;100.00
36354;BME280;22383;51.114;13.666;2022-10-30T15:07:32;69116.19;;;17.45;100.00
36354;BME280;22383;51.114;13.666;2022-10-30T15:15:04;69091.66;;;17.23;100.00
36354;BME280;22383;51.114;13.666;2022-10-30T15:17:39;69084.44;;;17.18;100.00
36354;BME280;22383;51.114;13.666;2022-10-30T15:20:15;69085.00;;;17.19;100.00
36354;BME280;22383;51.114;13.666;2022-10-30T15:22:43;69086.22;;;17.13;100.00
36354;BME280;22383;51.114;13.666;2022-10-30T15:25:19;69068.88;;;17.02;100.00
36354;BME280;22383;51.114;13.666;2022-10-30T15:27:51;69059.78;;;16.94;100.00
36354;BME280;22383;51.114;13.666;2022-10-30T15:30:21;69056.34;;;16.91;100.00
36354;BME280;22383;51.114;13.666;2022-10-30T15:32:50;69008.94;;;16.70;100.00
36354;BME280;22383;51.114;13.666;2022-10-30T15:35:25;69018.91;;;16.59;100.00
36354;BME280;22383;51.114;13.666;2022-10-30T15:38:08;69017.22;;;16.58;100.00
36354;BME280;22383;51.114;13.666;2022-10-30T15:40:37;69013.06;;;16.52;100.00